sensor_id;sensor_type;location;lat;lon;timestamp;temperature;humidity
20366;DHT22;10341;49.894;8.822;2023-05-20T00:04:11;11.40;99.90
20366;DHT22;10341;49.894;8.822;2023-05-20T00:09:30;11.40;99.90
20366;DHT22;10341;49.894;8.822;2023-05-20T00:14:50;11.40;99.90
20366;DHT22;10341;49.894;8.822;2023-05-20T00:20:09;11.30;99.90
20366;DHT22;10341;49.894;8.822;2023-05-20T00:25:29;11.30;99.90
20366;DHT22;10341;49.894;8.822;2023-05-20T00:30:49;11.20;99.90
20366;DHT22;10341;49.894;8.822;2023-05-20T00:36:08;11.20;99.90
20366;DHT22;10341;49.894;8.822;2023-05-20T00:41:27;11.20;99.90
20366;DHT22;10341;49.894;8.822;2023-05-20T00:46:46;11.10;99.90
20366;DHT22;10341;49.894;8.822;2023-05-20T00:52:07;11.20;99.90
20366;DHT22;10341;49.894;8.822;2023-05-20T00:57:26;11.10;99.90
20366;DHT22;10341;49.894;8.822;2023-05-20T01:02:46;11.00;99.90
20366;DHT22;10341;49.894;8.822;2023-05-20T01:08:06;11.00;99.90
20366;DHT22;10341;49.894;8.822;2023-05-20T01:13:27;10.90;99.90
20366;DHT22;10341;49.894;8.822;2023-05-20T01:18:49;10.90;99.90
20366;DHT22;10341;49.894;8.822;2023-05-20T01:24:09;10.90;99.90
20366;DHT22;10341;49.894;8.822;2023-05-20T01:29:28;10.90;99.90
20366;DHT22;10341;49.894;8.822;2023-05-20T01:34:49;10.80;99.90
20366;DHT22;10341;49.894;8.822;2023-05-20T01:40:12;10.80;99.90
20366;DHT22;10341;49.894;8.822;2023-05-20T01:45:33;10.80;99.90
20366;DHT22;10341;49.894;8.822;2023-05-20T01:50:52;10.70;99.90
20366;DHT22;10341;49.894;8.822;2023-05-20T01:56:11;10.80;99.90
20366;DHT22;10341;49.894;8.822;2023-05-20T02:01:30;10.80;99.90
20366;DHT22;10341;49.894;8.822;2023-05-20T02:06:49;10.70;99.90
20366;DHT22;10341;49.894;8.822;2023-05-20T02:12:08;10.70;99.90
20366;DHT22;10341;49.894;8.822;2023-05-20T02:17:34;10.70;99.90
20366;DHT22;10341;49.894;8.822;2023-05-20T02:22:54;10.60;99.90
20366;DHT22;10341;49.894;8.822;2023-05-20T02:28:13;10.50;99.90
20366;DHT22;10341;49.894;8.822;2023-05-20T02:33:34;10.50;99.90
20366;DHT22;10341;49.894;8.822;2023-05-20T02:38:53;10.50;99.90
20366;DHT22;10341;49.894;8.822;2023-05-20T02:44:14;10.40;99.90
20366;DHT22;10341;49.894;8.822;2023-05-20T02:49:34;10.30;99.90
20366;DHT22;10341;49.894;8.822;2023-05-20T02:54:55;10.30;99.90
20366;DHT22;10341;49.894;8.822;2023-05-20T03:00:14;10.20;99.90
20366;DHT22;10341;49.894;8.822;2023-05-20T03:05:35;10.30;99.90
20366;DHT22;10341;49.894;8.822;2023-05-20T03:10:56;10.20;99.90
20366;DHT22;10341;49.894;8.822;2023-05-20T03:16:15;10.30;99.90
20366;DHT22;10341;49.894;8.822;2023-05-20T03:21:36;10.40;99.90
20366;DHT22;10341;49.894;8.822;2023-05-20T03:26:56;10.50;99.90
20366;DHT22;10341;49.894;8.822;2023-05-20T03:32:15;10.60;99.90
20366;DHT22;10341;49.894;8.822;2023-05-20T03:37:34;10.70;99.90
20366;DHT22;10341;49.894;8.822;2023-05-20T03:42:54;10.80;99.90
20366;DHT22;10341;49.894;8.822;2023-05-20T03:48:14;10.80;99.90
20366;DHT22;10341;49.894;8.822;2023-05-20T03:53:35;11.00;99.90
20366;DHT22;10341;49.894;8.822;2023-05-20T03:58:55;11.10;99.90
20366;DHT22;10341;49.894;8.822;2023-05-20T04:04:14;11.20;99.90
20366;DHT22;10341;49.894;8.822;2023-05-20T04:09:34;11.40;99.90
20366;DHT22;10341;49.894;8.822;2023-05-20T04:14:54;11.50;99.90
20366;DHT22;10341;49.894;8.822;2023-05-20T04:20:14;11.60;99.90
20366;DHT22;10341;49.894;8.822;2023-05-20T04:25:33;11.70;99.90
20366;DHT22;10341;49.894;8.822;2023-05-20T04:30:59;11.80;99.90
20366;DHT22;10341;49.894;8.822;2023-05-20T04:36:18;11.90;99.90
20366;DHT22;10341;49.894;8.822;2023-05-20T04:41:38;12.00;99.90
20366;DHT22;10341;49.894;8.822;2023-05-20T04:46:58;12.20;99.90
20366;DHT22;10341;49.894;8.822;2023-05-20T04:52:17;12.40;99.90
20366;DHT22;10341;49.894;8.822;2023-05-20T04:57:38;12.60;99.90
20366;DHT22;10341;49.894;8.822;2023-05-20T05:02:59;12.70;99.90
20366;DHT22;10341;49.894;8.822;2023-05-20T05:08:19;12.70;99.90
20366;DHT22;10341;49.894;8.822;2023-05-20T05:13:43;12.80;99.90
20366;DHT22;10341;49.894;8.822;2023-05-20T05:19:02;12.80;99.90
20366;DHT22;10341;49.894;8.822;2023-05-20T05:24:25;12.90;99.90
20366;DHT22;10341;49.894;8.822;2023-05-20T05:29:44;13.00;99.90
20366;DHT22;10341;49.894;8.822;2023-05-20T05:35:04;13.20;99.90
20366;DHT22;10341;49.894;8.822;2023-05-20T05:40:24;13.30;99.90
20366;DHT22;10341;49.894;8.822;2023-05-20T05:45:43;13.50;99.90
20366;DHT22;10341;49.894;8.822;2023-05-20T05:51:03;13.70;99.90
20366;DHT22;10341;49.894;8.822;2023-05-20T05:56:23;14.00;99.90
20366;DHT22;10341;49.894;8.822;2023-05-20T06:01:43;14.30;99.90
20366;DHT22;10341;49.894;8.822;2023-05-20T06:07:02;14.50;99.90
20366;DHT22;10341;49.894;8.822;2023-05-20T06:12:21;14.70;99.90
20366;DHT22;10341;49.894;8.822;2023-05-20T06:17:41;14.80;99.90
20366;DHT22;10341;49.894;8.822;2023-05-20T06:23:00;14.90;99.90
20366;DHT22;10341;49.894;8.822;2023-05-20T06:28:30;15.00;99.90
20366;DHT22;10341;49.894;8.822;2023-05-20T06:33:49;15.10;99.90
20366;DHT22;10341;49.894;8.822;2023-05-20T06:39:19;15.10;99.90
20366;DHT22;10341;49.894;8.822;2023-05-20T06:44:38;15.20;99.90
20366;DHT22;10341;49.894;8.822;2023-05-20T06:50:07;15.20;99.90
20366;DHT22;10341;49.894;8.822;2023-05-20T06:55:28;15.40;99.90
20366;DHT22;10341;49.894;8.822;2023-05-20T07:00:47;15.60;99.90
20366;DHT22;10341;49.894;8.822;2023-05-20T07:06:09;15.80;99.90
20366;DHT22;10341;49.894;8.822;2023-05-20T07:11:28;16.50;99.90
20366;DHT22;10341;49.894;8.822;2023-05-20T07:16:48;17.20;99.90
20366;DHT22;10341;49.894;8.822;2023-05-20T07:22:07;17.80;99.90
20366;DHT22;10341;49.894;8.822;2023-05-20T07:27:34;18.30;99.90
20366;DHT22;10341;49.894;8.822;2023-05-20T07:32:54;18.60;99.90
20366;DHT22;10341;49.894;8.822;2023-05-20T07:38:13;18.80;99.90
20366;DHT22;10341;49.894;8.822;2023-05-20T07:43:34;18.90;99.90
20366;DHT22;10341;49.894;8.822;2023-05-20T07:48:55;19.30;99.90
20366;DHT22;10341;49.894;8.822;2023-05-20T07:54:15;20.10;99.90
20366;DHT22;10341;49.894;8.822;2023-05-20T07:59:36;20.90;99.90
20366;DHT22;10341;49.894;8.822;2023-05-20T08:04:56;21.10;99.90
20366;DHT22;10341;49.894;8.822;2023-05-20T08:10:16;21.20;99.90
20366;DHT22;10341;49.894;8.822;2023-05-20T08:15:37;22.30;99.90
20366;DHT22;10341;49.894;8.822;2023-05-20T08:20:56;22.90;99.90
20366;DHT22;10341;49.894;8.822;2023-05-20T08:26:17;22.90;99.90
20366;DHT22;10341;49.894;8.822;2023-05-20T08:31:37;24.20;98.50
20366;DHT22;10341;49.894;8.822;2023-05-20T08:36:56;23.40;98.40
20366;DHT22;10341;49.894;8.822;2023-05-20T08:42:20;24.00;97.20
20366;DHT22;10341;49.894;8.822;2023-05-20T08:47:41;24.10;97.60
20366;DHT22;10341;49.894;8.822;2023-05-20T08:53:01;24.30;96.80
20366;DHT22;10341;49.894;8.822;2023-05-20T08:58:21;24.90;96.20
20366;DHT22;10341;49.894;8.822;2023-05-20T09:03:41;25.20;95.90
20366;DHT22;10341;49.894;8.822;2023-05-20T09:09:01;25.10;94.60
20366;DHT22;10341;49.894;8.822;2023-05-20T09:14:20;26.30;93.50
20366;DHT22;10341;49.894;8.822;2023-05-20T09:19:39;25.70;93.00
20366;DHT22;10341;49.894;8.822;2023-05-20T09:24:57;26.00;93.00
20366;DHT22;10341;49.894;8.822;2023-05-20T09:30:20;26.90;91.70
20366;DHT22;10341;49.894;8.822;2023-05-20T09:35:41;27.50;91.50
20366;DHT22;10341;49.894;8.822;2023-05-20T09:41:03;28.20;90.10
20366;DHT22;10341;49.894;8.822;2023-05-20T09:46:26;29.00;86.70
20366;DHT22;10341;49.894;8.822;2023-05-20T09:51:47;30.30;83.70
20366;DHT22;10341;49.894;8.822;2023-05-20T09:57:08;30.20;81.40
20366;DHT22;10341;49.894;8.822;2023-05-20T10:02:28;31.00;80.30
20366;DHT22;10341;49.894;8.822;2023-05-20T10:08:24;30.00;80.30
20366;DHT22;10341;49.894;8.822;2023-05-20T10:19:28;32.00;76.80
20366;DHT22;10341;49.894;8.822;2023-05-20T10:25:03;30.00;77.20
20366;DHT22;10341;49.894;8.822;2023-05-20T10:30:24;28.50;80.50
20366;DHT22;10341;49.894;8.822;2023-05-20T10:35:49;29.20;79.60
20366;DHT22;10341;49.894;8.822;2023-05-20T10:41:09;31.10;76.00
20366;DHT22;10341;49.894;8.822;2023-05-20T10:46:33;29.90;76.80
20366;DHT22;10341;49.894;8.822;2023-05-20T10:51:52;28.30;81.20
20366;DHT22;10341;49.894;8.822;2023-05-20T10:57:12;27.50;82.70
20366;DHT22;10341;49.894;8.822;2023-05-20T11:02:31;27.10;83.70
20366;DHT22;10341;49.894;8.822;2023-05-20T11:08:03;30.50;79.90
20366;DHT22;10341;49.894;8.822;2023-05-20T11:13:22;30.30;76.00
20366;DHT22;10341;49.894;8.822;2023-05-20T11:18:41;29.90;77.50
20366;DHT22;10341;49.894;8.822;2023-05-20T11:24:00;31.50;75.00
20366;DHT22;10341;49.894;8.822;2023-05-20T11:29:19;32.30;72.70
20366;DHT22;10341;49.894;8.822;2023-05-20T11:34:40;32.80;71.90
20366;DHT22;10341;49.894;8.822;2023-05-20T11:40:06;31.00;73.70
20366;DHT22;10341;49.894;8.822;2023-05-20T11:45:27;31.10;75.00
20366;DHT22;10341;49.894;8.822;2023-05-20T11:50:56;32.30;72.20
20366;DHT22;10341;49.894;8.822;2023-05-20T11:56:15;32.50;71.70
20366;DHT22;10341;49.894;8.822;2023-05-20T12:01:36;32.60;71.30
20366;DHT22;10341;49.894;8.822;2023-05-20T12:06:55;33.00;69.00
20366;DHT22;10341;49.894;8.822;2023-05-20T12:12:14;31.90;71.30
20366;DHT22;10341;49.894;8.822;2023-05-20T12:17:44;30.80;72.10
20366;DHT22;10341;49.894;8.822;2023-05-20T12:23:04;29.70;73.70
20366;DHT22;10341;49.894;8.822;2023-05-20T12:28:24;28.90;76.30
20366;DHT22;10341;49.894;8.822;2023-05-20T12:33:43;29.20;76.90
20366;DHT22;10341;49.894;8.822;2023-05-20T12:39:02;29.60;76.20
20366;DHT22;10341;49.894;8.822;2023-05-20T12:44:22;31.00;74.30
20366;DHT22;10341;49.894;8.822;2023-05-20T12:49:41;31.10;72.40
20366;DHT22;10341;49.894;8.822;2023-05-20T12:55:00;29.60;74.60
20366;DHT22;10341;49.894;8.822;2023-05-20T13:00:20;28.40;77.50
20366;DHT22;10341;49.894;8.822;2023-05-20T13:05:39;27.80;78.70
20366;DHT22;10341;49.894;8.822;2023-05-20T13:10:58;29.40;78.10
20366;DHT22;10341;49.894;8.822;2023-05-20T13:16:17;28.90;76.40
20366;DHT22;10341;49.894;8.822;2023-05-20T13:21:37;27.30;80.10
20366;DHT22;10341;49.894;8.822;2023-05-20T13:26:56;26.10;83.20
20366;DHT22;10341;49.894;8.822;2023-05-20T13:32:16;25.90;85.50
20366;DHT22;10341;49.894;8.822;2023-05-20T13:37:35;26.80;82.90
20366;DHT22;10341;49.894;8.822;2023-05-20T13:42:55;27.90;82.80
20366;DHT22;10341;49.894;8.822;2023-05-20T13:48:14;28.70;79.60
20366;DHT22;10341;49.894;8.822;2023-05-20T13:53:34;29.20;78.00
20366;DHT22;10341;49.894;8.822;2023-05-20T13:58:53;28.20;79.80
20366;DHT22;10341;49.894;8.822;2023-05-20T14:04:12;29.70;78.10
20366;DHT22;10341;49.894;8.822;2023-05-20T14:09:31;31.60;75.80
20366;DHT22;10341;49.894;8.822;2023-05-20T14:14:50;32.00;72.30
20366;DHT22;10341;49.894;8.822;2023-05-20T14:20:10;32.10;71.60
20366;DHT22;10341;49.894;8.822;2023-05-20T14:25:30;30.50;75.60
20366;DHT22;10341;49.894;8.822;2023-05-20T14:30:49;28.70;77.60
20366;DHT22;10341;49.894;8.822;2023-05-20T14:36:09;27.30;81.10
20366;DHT22;10341;49.894;8.822;2023-05-20T14:41:28;27.40;80.90
20366;DHT22;10341;49.894;8.822;2023-05-20T14:46:47;29.30;78.10
20366;DHT22;10341;49.894;8.822;2023-05-20T14:52:06;31.00;75.80
20366;DHT22;10341;49.894;8.822;2023-05-20T14:57:25;31.50;73.20
20366;DHT22;10341;49.894;8.822;2023-05-20T15:02:45;30.90;75.20
20366;DHT22;10341;49.894;8.822;2023-05-20T15:08:04;30.60;75.70
20366;DHT22;10341;49.894;8.822;2023-05-20T15:13:24;31.00;75.10
20366;DHT22;10341;49.894;8.822;2023-05-20T15:18:43;31.30;74.20
20366;DHT22;10341;49.894;8.822;2023-05-20T15:24:03;31.10;73.10
20366;DHT22;10341;49.894;8.822;2023-05-20T15:29:22;30.50;74.20
20366;DHT22;10341;49.894;8.822;2023-05-20T15:34:41;30.20;75.10
20366;DHT22;10341;49.894;8.822;2023-05-20T15:40:00;29.30;76.20
20366;DHT22;10341;49.894;8.822;2023-05-20T15:45:19;28.30;78.10
20366;DHT22;10341;49.894;8.822;2023-05-20T15:50:39;27.10;80.60
20366;DHT22;10341;49.894;8.822;2023-05-20T15:55:59;26.00;84.40
20366;DHT22;10341;49.894;8.822;2023-05-20T16:01:19;25.20;87.20
20366;DHT22;10341;49.894;8.822;2023-05-20T16:06:40;25.20;87.20
20366;DHT22;10341;49.894;8.822;2023-05-20T16:11:59;25.10;87.40
20366;DHT22;10341;49.894;8.822;2023-05-20T16:17:18;24.90;88.00
20366;DHT22;10341;49.894;8.822;2023-05-20T16:22:41;25.00;88.50
20366;DHT22;10341;49.894;8.822;2023-05-20T16:28:00;24.60;89.90
20366;DHT22;10341;49.894;8.822;2023-05-20T16:33:19;23.90;90.90
20366;DHT22;10341;49.894;8.822;2023-05-20T16:38:39;23.50;91.30
20366;DHT22;10341;49.894;8.822;2023-05-20T16:43:59;23.00;92.50
20366;DHT22;10341;49.894;8.822;2023-05-20T16:49:18;22.50;93.70
20366;DHT22;10341;49.894;8.822;2023-05-20T16:54:37;22.10;94.90
20366;DHT22;10341;49.894;8.822;2023-05-20T16:59:56;22.00;95.60
20366;DHT22;10341;49.894;8.822;2023-05-20T17:05:16;21.60;96.20
20366;DHT22;10341;49.894;8.822;2023-05-20T17:10:35;21.60;97.20
20366;DHT22;10341;49.894;8.822;2023-05-20T17:15:54;21.50;98.20
20366;DHT22;10341;49.894;8.822;2023-05-20T17:21:14;21.30;98.50
20366;DHT22;10341;49.894;8.822;2023-05-20T17:26:35;21.20;99.20
20366;DHT22;10341;49.894;8.822;2023-05-20T17:31:54;21.20;99.90
20366;DHT22;10341;49.894;8.822;2023-05-20T17:37:13;21.10;99.90
20366;DHT22;10341;49.894;8.822;2023-05-20T17:42:32;21.00;99.90
20366;DHT22;10341;49.894;8.822;2023-05-20T17:47:52;20.80;99.90
20366;DHT22;10341;49.894;8.822;2023-05-20T17:53:11;20.60;99.90
20366;DHT22;10341;49.894;8.822;2023-05-20T17:58:30;20.40;99.90
20366;DHT22;10341;49.894;8.822;2023-05-20T18:03:51;20.20;99.90
20366;DHT22;10341;49.894;8.822;2023-05-20T18:09:10;20.00;99.90
20366;DHT22;10341;49.894;8.822;2023-05-20T18:14:30;19.80;99.90
20366;DHT22;10341;49.894;8.822;2023-05-20T18:19:49;19.50;99.90
20366;DHT22;10341;49.894;8.822;2023-05-20T18:25:10;19.40;99.90
20366;DHT22;10341;49.894;8.822;2023-05-20T18:30:29;19.20;99.90
20366;DHT22;10341;49.894;8.822;2023-05-20T18:35:49;19.00;99.90
20366;DHT22;10341;49.894;8.822;2023-05-20T18:41:09;18.90;99.90
20366;DHT22;10341;49.894;8.822;2023-05-20T18:46:29;18.80;99.90
20366;DHT22;10341;49.894;8.822;2023-05-20T18:51:49;18.60;99.90
20366;DHT22;10341;49.894;8.822;2023-05-20T18:57:08;18.50;99.90
20366;DHT22;10341;49.894;8.822;2023-05-20T19:02:27;18.40;99.90
20366;DHT22;10341;49.894;8.822;2023-05-20T19:07:47;18.30;99.90
20366;DHT22;10341;49.894;8.822;2023-05-20T19:13:06;18.20;99.90
20366;DHT22;10341;49.894;8.822;2023-05-20T19:18:26;18.10;99.90
20366;DHT22;10341;49.894;8.822;2023-05-20T19:23:48;18.00;99.90
20366;DHT22;10341;49.894;8.822;2023-05-20T19:29:07;17.90;99.90
20366;DHT22;10341;49.894;8.822;2023-05-20T19:34:27;17.70;99.90
20366;DHT22;10341;49.894;8.822;2023-05-20T19:39:46;17.60;99.90
20366;DHT22;10341;49.894;8.822;2023-05-20T19:45:05;17.60;99.90
20366;DHT22;10341;49.894;8.822;2023-05-20T19:50:24;17.50;99.90
20366;DHT22;10341;49.894;8.822;2023-05-20T19:55:44;17.40;99.90
20366;DHT22;10341;49.894;8.822;2023-05-20T20:01:03;17.20;99.90
20366;DHT22;10341;49.894;8.822;2023-05-20T20:06:24;17.20;99.90
20366;DHT22;10341;49.894;8.822;2023-05-20T20:11:44;17.00;99.90
20366;DHT22;10341;49.894;8.822;2023-05-20T20:17:03;17.00;99.90
20366;DHT22;10341;49.894;8.822;2023-05-20T20:22:24;16.90;99.90
20366;DHT22;10341;49.894;8.822;2023-05-20T20:27:43;16.90;99.90
20366;DHT22;10341;49.894;8.822;2023-05-20T20:33:03;16.80;99.90
20366;DHT22;10341;49.894;8.822;2023-05-20T20:38:27;16.70;99.90
20366;DHT22;10341;49.894;8.822;2023-05-20T20:43:46;16.70;99.90
20366;DHT22;10341;49.894;8.822;2023-05-20T20:49:05;16.60;99.90
20366;DHT22;10341;49.894;8.822;2023-05-20T20:54:24;16.50;99.90
20366;DHT22;10341;49.894;8.822;2023-05-20T20:59:44;16.40;99.90
20366;DHT22;10341;49.894;8.822;2023-05-20T21:05:05;16.40;99.90
20366;DHT22;10341;49.894;8.822;2023-05-20T21:10:25;16.30;99.90
20366;DHT22;10341;49.894;8.822;2023-05-20T21:15:47;16.20;99.90
20366;DHT22;10341;49.894;8.822;2023-05-20T21:21:07;16.10;99.90
20366;DHT22;10341;49.894;8.822;2023-05-20T21:26:30;16.00;99.90
20366;DHT22;10341;49.894;8.822;2023-05-20T21:31:49;15.90;99.90
20366;DHT22;10341;49.894;8.822;2023-05-20T21:37:08;15.90;99.90
20366;DHT22;10341;49.894;8.822;2023-05-20T21:42:28;15.70;99.90
20366;DHT22;10341;49.894;8.822;2023-05-20T21:47:47;15.70;99.90
20366;DHT22;10341;49.894;8.822;2023-05-20T21:53:06;15.60;99.90
20366;DHT22;10341;49.894;8.822;2023-05-20T21:58:25;15.60;99.90
20366;DHT22;10341;49.894;8.822;2023-05-20T22:03:45;15.50;99.90
20366;DHT22;10341;49.894;8.822;2023-05-20T22:09:04;15.50;99.90
20366;DHT22;10341;49.894;8.822;2023-05-20T22:14:24;15.40;99.90
20366;DHT22;10341;49.894;8.822;2023-05-20T22:19:43;15.30;99.90
20366;DHT22;10341;49.894;8.822;2023-05-20T22:25:02;15.30;99.90
20366;DHT22;10341;49.894;8.822;2023-05-20T22:30:22;15.30;99.90
20366;DHT22;10341;49.894;8.822;2023-05-20T22:35:41;15.30;99.90
20366;DHT22;10341;49.894;8.822;2023-05-20T22:41:01;15.30;99.90
20366;DHT22;10341;49.894;8.822;2023-05-20T22:46:20;15.20;99.90
20366;DHT22;10341;49.894;8.822;2023-05-20T22:51:39;15.20;99.90
20366;DHT22;10341;49.894;8.822;2023-05-20T22:56:59;15.10;99.90
20366;DHT22;10341;49.894;8.822;2023-05-20T23:02:18;15.10;99.90
20366;DHT22;10341;49.894;8.822;2023-05-20T23:07:38;15.10;99.90
20366;DHT22;10341;49.894;8.822;2023-05-20T23:12:57;15.00;99.90
20366;DHT22;10341;49.894;8.822;2023-05-20T23:18:17;15.00;99.90
20366;DHT22;10341;49.894;8.822;2023-05-20T23:23:36;15.00;99.90
20366;DHT22;10341;49.894;8.822;2023-05-20T23:28:55;14.90;99.90
20366;DHT22;10341;49.894;8.822;2023-05-20T23:34:15;14.90;99.90
20366;DHT22;10341;49.894;8.822;2023-05-20T23:39:34;14.90;99.90
20366;DHT22;10341;49.894;8.822;2023-05-20T23:44:54;14.90;99.90
20366;DHT22;10341;49.894;8.822;2023-05-20T23:50:13;14.80;99.90
20366;DHT22;10341;49.894;8.822;2023-05-20T23:55:32;14.80;99.90
